Time;durP1;ratioP1;P1;durP2;ratioP2;P2;SDS_P1;SDS_P2;PMS_P1;PMS_P2;Temp;Humidity;BMP_temperature;BMP_pressure;BME280_temperature;BME280_humidity;BME280_pressure;Samples;Min_cycle;Max_cycle;Signal;HPM_P1;HPM_P2
2023/07/16 00:00:39;;;;;;;80.03;45.00;;;;;;;;;;6198684;28;20046;-56
2023/07/16 00:04:00;;;;;;;82.03;43.58;;;;;;;;;;6195201;28;20050;-55
2023/07/16 00:07:01;;;;;;;55.33;35.13;;;;;;;;;;6194046;28;20053;-55
2023/07/16 00:10:02;;;;;;;;;;;;;;;;;;6196817;28;20607;-55
2023/07/16 00:13:04;;;;;;;57.53;33.03;;;;;;;;;;6193231;28;20395;-57
2023/07/16 00:16:04;;;;;;;62.30;37.75;;;;;;;;;;6198054;28;20046;-58
2023/07/16 00:19:05;;;;;;;70.33;40.57;;;;;;;;;;6199822;28;20050;-56
2023/07/16 00:22:06;;;;;;;54.63;34.60;;;;;;;;;;6193116;28;20399;-54
2023/07/16 00:25:07;;;;;;;68.80;38.30;;;;;;;;;;6196268;28;20050;-55
2023/07/16 00:28:08;;;;;;;;;;;;;;;;;;6197601;28;20046;-56
2023/07/16 00:31:10;;;;;;;60.92;34.83;;;;;;;;;;6197449;28;19925;-55
2023/07/16 00:34:12;;;;;;;68.93;38.30;;;;;;;;;;6196983;28;20714;-55
2023/07/16 00:37:13;;;;;;;65.55;38.15;;;;;;;;;;6192224;28;20507;-56
2023/07/16 00:40:13;;;;;;;64.53;36.77;;;;;;;;;;6195591;28;20132;-57
2023/07/16 00:43:14;;;;;;;58.97;34.77;;;;;;;;;;6179044;28;20502;-55
2023/07/16 00:46:15;;;;;;;58.83;33.17;;;;;;;;;;6195666;28;20049;-56
2023/07/16 00:49:16;;;;;;;61.63;36.20;;;;;;;;;;6181175;28;20049;-56
2023/07/16 00:52:19;;;;;;;62.60;37.53;;;;;;;;;;6194989;28;20104;-54
2023/07/16 00:55:19;;;;;;;62.20;36.42;;;;;;;;;;6196588;28;20481;-56
2023/07/16 00:58:20;;;;;;;52.40;31.63;;;;;;;;;;6195158;28;20057;-55
2023/07/16 01:01:21;;;;;;;51.77;31.77;;;;;;;;;;6178777;28;20062;-55
2023/07/16 01:04:21;;;;;;;47.57;31.33;;;;;;;;;;6193907;28;20042;-52
2023/07/16 01:07:25;;;;;;;46.97;30.70;;;;;;;;;;6194786;28;20049;-55
2023/07/16 01:10:26;;;;;;;48.88;29.35;;;;;;;;;;6195542;28;20103;-54
2023/07/16 01:13:28;;;;;;;56.47;32.05;;;;;;;;;;6195915;28;20137;-55
2023/07/16 01:16:29;;;;;;;58.15;31.08;;;;;;;;;;6194202;28;20545;-56
2023/07/16 01:19:29;;;;;;;57.00;30.97;;;;;;;;;;6195869;28;20912;-56
2023/07/16 01:22:30;;;;;;;59.13;32.33;;;;;;;;;;6196020;28;20042;-55
2023/07/16 01:26:07;;;;;;;49.07;29.13;;;;;;;;;;6194978;28;20057;-57
2023/07/16 01:29:20;;;;;;;51.65;29.13;;;;;;;;;;6192264;28;20434;-55
2023/07/16 01:32:22;;;;;;;42.00;24.92;;;;;;;;;;6195592;28;20050;-57
2023/07/16 01:35:42;;;;;;;45.67;25.80;;;;;;;;;;6195421;28;20042;-55
2023/07/16 01:38:44;;;;;;;43.25;26.00;;;;;;;;;;6195223;28;20085;-56
2023/07/16 01:41:45;;;;;;;47.65;26.45;;;;;;;;;;6194911;28;20050;-55
2023/07/16 01:44:45;;;;;;;41.67;25.53;;;;;;;;;;6195516;28;20143;-54
2023/07/16 01:47:59;;;;;;;44.60;26.43;;;;;;;;;;6192444;28;20611;-51
2023/07/16 01:51:00;;;;;;;43.45;25.50;;;;;;;;;;6193807;28;20477;-56
2023/07/16 01:54:01;;;;;;;44.23;24.87;;;;;;;;;;6193908;28;20088;-55
2023/07/16 01:57:01;;;;;;;40.87;26.03;;;;;;;;;;6191038;28;20037;-56
2023/07/16 02:00:02;;;;;;;39.80;24.57;;;;;;;;;;6197547;28;20046;-57
2023/07/16 02:03:03;;;;;;;44.75;25.38;;;;;;;;;;6193292;28;20373;-54
2023/07/16 02:06:04;;;;;;;43.37;24.77;;;;;;;;;;6193684;28;20315;-52
2023/07/16 02:09:04;;;;;;;40.67;25.03;;;;;;;;;;6195224;28;20493;-55
2023/07/16 02:12:05;;;;;;;41.40;25.10;;;;;;;;;;6195979;28;20048;-53
2023/07/16 02:15:06;;;;;;;38.30;23.20;;;;;;;;;;6196810;28;20046;-55
2023/07/16 02:18:07;;;;;;;43.60;25.10;;;;;;;;;;6189532;28;20338;-55
2023/07/16 02:21:07;;;;;;;46.57;27.23;;;;;;;;;;6177966;28;20041;-57
2023/07/16 02:24:08;;;;;;;42.50;25.83;;;;;;;;;;6196794;28;20137;-54
2023/07/16 02:27:08;;;;;;;43.27;25.23;;;;;;;;;;6194082;28;20549;-57
2023/07/16 02:30:09;;;;;;;40.47;24.20;;;;;;;;;;6195223;28;20053;-56
2023/07/16 02:33:10;;;;;;;40.90;24.30;;;;;;;;;;6195591;28;20068;-54
2023/07/16 02:36:11;;;;;;;40.13;23.67;;;;;;;;;;6194270;28;20042;-56
2023/07/16 02:39:11;;;;;;;39.67;23.70;;;;;;;;;;6192937;28;20045;-49
2023/07/16 02:42:12;;;;;;;40.50;23.40;;;;;;;;;;6196704;28;20219;-51
2023/07/16 02:45:12;;;;;;;37.93;23.73;;;;;;;;;;6179770;28;20303;-55
2023/07/16 02:48:13;;;;;;;39.37;24.00;;;;;;;;;;6190427;28;20073;-50
2023/07/16 02:51:14;;;;;;;37.17;22.93;;;;;;;;;;6195743;28;20050;-56
2023/07/16 02:54:14;;;;;;;39.00;22.23;;;;;;;;;;6201062;28;20080;-55
2023/07/16 02:57:15;;;;;;;42.53;24.20;;;;;;;;;;6199667;28;20045;-52
2023/07/16 03:00:16;;;;;;;41.23;23.07;;;;;;;;;;6198406;28;20133;-56
2023/07/16 03:03:16;;;;;;;39.03;23.57;;;;;;;;;;6192666;28;20482;-55
2023/07/16 03:06:17;;;;;;;43.87;23.00;;;;;;;;;;6196605;28;20387;-56
2023/07/16 03:09:18;;;;;;;40.20;24.13;;;;;;;;;;6197987;28;20537;-56
2023/07/16 03:12:18;;;;;;;40.47;22.90;;;;;;;;;;6194862;28;20745;-54
2023/07/16 03:15:19;;;;;;;39.30;23.87;;;;;;;;;;6192537;28;20097;-55
2023/07/16 03:18:20;;;;;;;38.20;23.20;;;;;;;;;;6197205;28;20093;-56
2023/07/16 03:21:20;;;;;;;39.10;23.67;;;;;;;;;;6198931;28;20034;-55
2023/07/16 03:24:21;;;;;;;34.03;22.03;;;;;;;;;;6201236;28;20096;-54
2023/07/16 03:27:21;;;;;;;36.50;23.17;;;;;;;;;;6200360;28;20541;-55
2023/07/16 03:30:22;;;;;;;42.63;24.07;;;;;;;;;;6203620;28;20033;-54
2023/07/16 03:33:23;;;;;;;41.23;23.17;;;;;;;;;;6203364;28;20068;-54
2023/07/16 03:36:23;;;;;;;41.67;23.77;;;;;;;;;;6198769;28;20050;-55
2023/07/16 03:39:24;;;;;;;40.47;22.23;;;;;;;;;;6202423;28;20050;-56
2023/07/16 03:42:25;;;;;;;38.33;22.87;;;;;;;;;;6201473;28;20073;-55
2023/07/16 03:45:26;;;;;;;40.20;22.75;;;;;;;;;;6201316;28;20057;-56
2023/07/16 03:48:26;;;;;;;38.80;21.90;;;;;;;;;;6199449;28;20050;-53
2023/07/16 03:51:27;;;;;;;35.10;22.07;;;;;;;;;;6185184;28;20050;-55
2023/07/16 03:54:28;;;;;;;33.37;21.30;;;;;;;;;;6201850;28;20167;-54
2023/07/16 03:57:29;;;;;;;37.37;22.47;;;;;;;;;;6200143;28;20050;-54
2023/07/16 04:00:29;;;;;;;42.90;24.05;;;;;;;;;;6201469;28;20108;-55
2023/07/16 04:03:30;;;;;;;34.13;21.53;;;;;;;;;;6199654;28;20058;-53
2023/07/16 04:06:31;;;;;;;37.33;22.30;;;;;;;;;;6196871;28;20169;-55
2023/07/16 04:09:31;;;;;;;35.90;21.10;;;;;;;;;;6201497;28;20517;-56
2023/07/16 04:12:32;;;;;;;39.73;21.87;;;;;;;;;;6202825;28;20405;-53
2023/07/16 04:15:32;;;;;;;33.47;21.27;;;;;;;;;;6202376;28;20056;-53
2023/07/16 04:18:33;;;;;;;32.70;21.70;;;;;;;;;;6199133;28;20077;-54
2023/07/16 04:21:33;;;;;;;38.13;22.13;;;;;;;;;;6199796;28;20438;-51
2023/07/16 04:24:34;;;;;;;32.97;20.63;;;;;;;;;;6198282;28;20200;-53
2023/07/16 04:27:35;;;;;;;31.87;20.47;;;;;;;;;;6199023;28;20414;-56
2023/07/16 04:30:37;;;;;;;35.22;21.30;;;;;;;;;;6199646;28;20084;-55
2023/07/16 04:33:37;;;;;;;31.35;21.42;;;;;;;;;;6199225;28;20046;-53
2023/07/16 04:36:38;;;;;;;35.10;20.90;;;;;;;;;;6198545;28;20070;-56
2023/07/16 04:39:38;;;;;;;36.73;21.40;;;;;;;;;;6208605;28;20394;-56
2023/07/16 04:42:39;;;;;;;34.53;21.93;;;;;;;;;;6200163;28;20513;-55
2023/07/16 04:45:40;;;;;;;33.47;20.30;;;;;;;;;;6198383;28;20046;-54
2023/07/16 04:48:41;;;;;;;33.07;21.00;;;;;;;;;;6210103;28;20132;-55
2023/07/16 04:51:41;;;;;;;33.30;20.67;;;;;;;;;;6201367;28;20539;-56
2023/07/16 04:54:42;;;;;;;34.27;21.47;;;;;;;;;;6199113;28;20069;-53
2023/07/16 04:57:42;;;;;;;35.83;22.03;;;;;;;;;;6198696;28;20046;-54
2023/07/16 05:00:43;;;;;;;36.90;22.10;;;;;;;;;;6199058;28;20054;-55
2023/07/16 05:03:44;;;;;;;36.40;21.57;;;;;;;;;;6193179;28;20066;-55
2023/07/16 05:06:44;;;;;;;36.97;22.70;;;;;;;;;;6197211;28;20046;-55
2023/07/16 05:09:45;;;;;;;34.43;22.10;;;;;;;;;;6199588;28;20054;-55
2023/07/16 05:12:45;;;;;;;34.20;22.07;;;;;;;;;;6199917;28;20052;-54
2023/07/16 05:15:46;;;;;;;30.17;20.90;;;;;;;;;;6197602;28;20045;-57
2023/07/16 05:18:47;;;;;;;31.60;21.25;;;;;;;;;;6199289;28;20061;-54
2023/07/16 05:21:48;;;;;;;35.03;22.10;;;;;;;;;;6200617;28;20577;-56
2023/07/16 05:24:48;;;;;;;36.67;21.93;;;;;;;;;;6198456;28;20119;-56
2023/07/16 05:27:49;;;;;;;36.50;22.20;;;;;;;;;;6198476;28;20043;-55
2023/07/16 05:31:00;;;;;;;34.13;22.03;;;;;;;;;;6194937;28;20092;-54
2023/07/16 05:34:00;;;;;;;34.38;22.05;;;;;;;;;;6199823;28;20046;-56
2023/07/16 05:37:01;;;;;;;32.37;21.30;;;;;;;;;;6196106;28;20065;-57
2023/07/16 05:40:03;;;;;;;34.20;22.07;;;;;;;;;;6199181;28;20052;-55
2023/07/16 05:43:03;;;;;;;;;;;;;;;;;;6201942;28;20266;-54
2023/07/16 05:46:05;;;;;;;34.90;21.90;;;;;;;;;;6198127;28;19929;-57
2023/07/16 05:49:05;;;;;;;35.63;21.08;;;;;;;;;;6198546;28;20504;-57
2023/07/16 05:52:06;;;;;;;32.53;20.67;;;;;;;;;;6200457;28;20046;-55
2023/07/16 05:55:07;;;;;;;36.35;21.15;;;;;;;;;;6199664;28;20433;-56
2023/07/16 05:58:08;;;;;;;34.17;21.88;;;;;;;;;;6193900;28;20054;-56
2023/07/16 06:01:09;;;;;;;32.83;20.67;;;;;;;;;;6197550;28;20173;-57
2023/07/16 06:04:09;;;;;;;31.23;20.80;;;;;;;;;;6199858;28;20038;-56
2023/07/16 06:07:12;;;;;;;34.90;21.07;;;;;;;;;;6196821;28;20130;-56
2023/07/16 06:10:13;;;;;;;28.10;20.48;;;;;;;;;;6198819;28;20112;-57
2023/07/16 06:13:14;;;;;;;34.83;20.40;;;;;;;;;;6199460;28;20505;-56
2023/07/16 06:16:14;;;;;;;30.33;20.60;;;;;;;;;;6196722;28;20050;-55
2023/07/16 06:19:15;;;;;;;30.57;20.27;;;;;;;;;;6194784;28;20124;-56
2023/07/16 06:22:16;;;;;;;29.03;20.80;;;;;;;;;;6194076;28;20502;-58
2023/07/16 06:25:16;;;;;;;32.43;20.97;;;;;;;;;;6199428;28;20111;-57
2023/07/16 06:28:17;;;;;;;29.50;20.23;;;;;;;;;;6196519;28;20042;-58
2023/07/16 06:31:18;;;;;;;28.37;20.33;;;;;;;;;;6201815;28;20046;-56
2023/07/16 06:34:18;;;;;;;30.13;20.50;;;;;;;;;;6198761;28;20057;-57
2023/07/16 06:37:23;;;;;;;30.73;20.67;;;;;;;;;;6195558;28;20563;-64
2023/07/16 06:40:24;;;;;;;32.80;20.77;;;;;;;;;;6197089;28;20096;-59
2023/07/16 06:43:25;;;;;;;;;;;;;;;;;;6197860;28;20042;-59
2023/07/16 06:46:25;;;;;;;30.10;20.17;;;;;;;;;;6197340;28;20384;-60
2023/07/16 06:49:26;;;;;;;30.88;19.40;;;;;;;;;;6216047;28;20448;-60
2023/07/16 06:52:27;;;;;;;30.07;19.90;;;;;;;;;;6216206;28;20096;-61
2023/07/16 06:55:28;;;;;;;;;;;;;;;;;;6192675;28;20128;-58
2023/07/16 06:58:35;;;;;;;32.57;19.57;;;;;;;;;;6210394;28;20385;-60
2023/07/16 07:01:36;;;;;;;31.25;19.83;;;;;;;;;;6214832;28;20133;-60
2023/07/16 07:04:36;;;;;;;31.00;19.90;;;;;;;;;;6200503;28;20054;-59
2023/07/16 07:07:37;;;;;;;29.67;20.50;;;;;;;;;;6196159;28;20120;-59
2023/07/16 07:10:39;;;;;;;29.67;20.93;;;;;;;;;;6197815;28;20440;-60
2023/07/16 07:13:40;;;;;;;34.15;21.90;;;;;;;;;;6197335;28;20402;-60
2023/07/16 07:16:40;;;;;;;28.60;21.63;;;;;;;;;;6206247;28;20061;-60
2023/07/16 07:19:43;;;;;;;28.75;20.27;;;;;;;;;;6206129;28;20413;-60
2023/07/16 07:22:43;;;;;;;33.25;21.65;;;;;;;;;;6198159;28;20205;-60
2023/07/16 07:25:49;;;;;;;32.40;20.92;;;;;;;;;;6203630;28;20086;-60
2023/07/16 07:28:50;;;;;;;29.88;21.80;;;;;;;;;;6196089;28;20064;-60
2023/07/16 07:31:52;;;;;;;35.55;22.52;;;;;;;;;;6202789;28;20054;-59
2023/07/16 07:34:53;;;;;;;34.08;23.25;;;;;;;;;;6201386;28;20203;-60
2023/07/16 07:37:54;;;;;;;34.20;22.88;;;;;;;;;;6207040;28;20081;-60
2023/07/16 07:40:54;;;;;;;33.87;23.83;;;;;;;;;;6203668;28;20071;-60
2023/07/16 07:43:55;;;;;;;40.83;25.70;;;;;;;;;;6199225;28;20142;-59
2023/07/16 07:46:55;;;;;;;39.83;26.57;;;;;;;;;;6207989;28;20050;-61
2023/07/16 07:49:56;;;;;;;40.20;26.80;;;;;;;;;;6205659;28;20074;-60
2023/07/16 07:52:56;;;;;;;40.90;26.50;;;;;;;;;;6217696;28;20490;-60
2023/07/16 07:55:57;;;;;;;38.65;27.25;;;;;;;;;;6219904;28;20050;-60
2023/07/16 07:58:57;;;;;;;39.07;26.77;;;;;;;;;;6218800;28;20049;-60
2023/07/16 08:01:58;;;;;;;44.78;27.55;;;;;;;;;;6199955;28;20050;-59
2023/07/16 08:04:59;;;;;;;40.28;28.55;;;;;;;;;;6206776;28;20413;-60
2023/07/16 08:08:00;;;;;;;41.33;28.48;;;;;;;;;;6212409;28;20050;-60
2023/07/16 08:11:00;;;;;;;47.70;28.33;;;;;;;;;;6219971;28;20053;-59
2023/07/16 08:14:01;;;;;;;39.53;28.15;;;;;;;;;;6219703;28;20111;-60
2023/07/16 08:17:01;;;;;;;41.10;28.93;;;;;;;;;;6218748;28;20580;-60
2023/07/16 08:20:02;;;;;;;36.85;27.88;;;;;;;;;;6200509;28;20558;-60
2023/07/16 08:23:03;;;;;;;40.08;27.75;;;;;;;;;;6215583;28;20048;-59
2023/07/16 08:26:03;;;;;;;34.03;27.08;;;;;;;;;;6219134;28;20560;-61
2023/07/16 08:29:04;;;;;;;37.30;27.03;;;;;;;;;;6218202;28;20054;-60
2023/07/16 08:32:05;;;;;;;35.80;26.70;;;;;;;;;;6216928;28;20041;-61
2023/07/16 08:35:06;;;;;;;37.22;26.95;;;;;;;;;;6218484;28;20056;-61
2023/07/16 08:38:10;;;;;;;36.20;26.30;;;;;;;;;;6209288;28;20062;-60
2023/07/16 08:41:11;;;;;;;37.05;27.30;;;;;;;;;;6219221;28;20065;-60
2023/07/16 08:44:12;;;;;;;35.95;26.75;;;;;;;;;;6212784;28;20053;-60
2023/07/16 08:47:13;;;;;;;36.13;28.08;;;;;;;;;;6218366;28;20042;-59
2023/07/16 08:50:14;;;;;;;37.40;30.10;;;;;;;;;;6214908;28;20050;-59
2023/07/16 08:53:18;;;;;;;42.73;31.93;;;;;;;;;;6205874;28;20060;-60
2023/07/16 08:56:19;;;;;;;44.65;31.92;;;;;;;;;;6201284;28;20125;-61
2023/07/16 08:59:20;;;;;;;44.25;32.75;;;;;;;;;;6191435;28;20117;-60
2023/07/16 09:02:21;;;;;;;44.67;33.28;;;;;;;;;;6192654;28;20145;-60
2023/07/16 09:05:23;;;;;;;45.50;32.70;;;;;;;;;;6195398;28;20136;-60
2023/07/16 09:08:28;;;;;;;48.95;37.60;;;;;;;;;;6194787;28;20049;-60
2023/07/16 09:11:28;;;;;;;47.45;36.22;;;;;;;;;;6209604;28;20077;-59
2023/07/16 09:14:29;;;;;;;45.92;35.60;;;;;;;;;;6208641;28;20145;-61
2023/07/16 09:17:30;;;;;;;46.87;35.23;;;;;;;;;;6218084;28;20440;-60
2023/07/16 09:20:30;;;;;;;49.20;37.80;;;;;;;;;;6217974;28;20050;-59
2023/07/16 09:23:32;;;;;;;55.43;39.80;;;;;;;;;;6216430;28;20061;-60
2023/07/16 09:26:33;;;;;;;50.28;39.22;;;;;;;;;;6216033;28;20424;-60
2023/07/16 09:29:33;;;;;;;54.90;40.90;;;;;;;;;;6216608;28;20050;-60
2023/07/16 09:32:41;;;;;;;52.15;38.67;;;;;;;;;;6204805;28;20054;-61
2023/07/16 09:35:42;;;;;;;50.92;39.28;;;;;;;;;;6204457;28;20062;-60
2023/07/16 09:38:44;;;;;;;52.30;40.35;;;;;;;;;;6215122;28;20049;-61
2023/07/16 09:41:48;;;;;;;48.97;39.45;;;;;;;;;;6195955;28;20077;-61
2023/07/16 09:44:53;;;;;;;56.65;39.92;;;;;;;;;;6196214;28;20853;-59
2023/07/16 09:47:54;;;;;;;51.00;40.38;;;;;;;;;;6198747;28;20058;-58
2023/07/16 09:50:55;;;;;;;52.05;40.38;;;;;;;;;;6196681;28;20522;-60
2023/07/16 09:53:57;;;;;;;51.80;40.15;;;;;;;;;;6195616;28;20128;-60
2023/07/16 09:57:00;;;;;;;50.00;39.92;;;;;;;;;;6200292;28;20045;-59
2023/07/16 10:00:05;;;;;;;50.45;40.38;;;;;;;;;;6195087;28;20112;-59
2023/07/16 10:03:07;;;;;;;51.55;39.33;;;;;;;;;;6194262;28;20050;-60
2023/07/16 10:06:08;;;;;;;54.50;39.78;;;;;;;;;;6198219;28;20426;-60
2023/07/16 10:09:09;;;;;;;;;;;;;;;;;;6198777;28;20057;-59
2023/07/16 10:12:18;;;;;;;50.73;37.57;;;;;;;;;;6196316;28;19921;-61
2023/07/16 10:15:25;;;;;;;48.78;39.67;;;;;;;;;;6198424;28;20043;-61
2023/07/16 10:18:30;;;;;;;47.03;34.92;;;;;;;;;;6194913;28;20064;-60
2023/07/16 10:21:38;;;;;;;47.42;34.17;;;;;;;;;;6193851;28;20057;-61
2023/07/16 10:24:39;;;;;;;44.10;35.60;;;;;;;;;;6201424;28;20054;-61
2023/07/16 10:27:40;;;;;;;47.00;35.35;;;;;;;;;;6197696;28;20061;-62
2023/07/16 10:30:40;;;;;;;47.50;35.38;;;;;;;;;;6195209;28;20069;-58
2023/07/16 10:33:41;;;;;;;46.63;33.15;;;;;;;;;;6201102;28;20049;-63
2023/07/16 10:36:42;;;;;;;42.17;31.77;;;;;;;;;;6193359;28;20077;-54
2023/07/16 10:39:51;;;;;;;39.65;29.00;;;;;;;;;;6200752;28;20077;-60
2023/07/16 10:42:52;;;;;;;35.30;27.15;;;;;;;;;;6198406;28;20050;-57
2023/07/16 10:45:53;;;;;;;38.95;26.42;;;;;;;;;;6197993;28;20127;-55
2023/07/16 10:48:54;;;;;;;;;;;;;;;;;;6204047;28;20052;-59
2023/07/16 10:51:55;;;;;;;38.50;26.17;;;;;;;;;;6195321;28;19957;-59
2023/07/16 10:54:57;;;;;;;38.53;25.13;;;;;;;;;;6198294;28;20050;-54
2023/07/16 10:57:58;;;;;;;38.75;25.55;;;;;;;;;;6202746;28;20280;-66
2023/07/16 11:00:58;;;;;;;36.08;25.85;;;;;;;;;;6198249;28;20092;-62
2023/07/16 11:04:07;;;;;;;33.67;24.50;;;;;;;;;;6197403;28;20042;-59
2023/07/16 11:07:08;;;;;;;30.83;23.38;;;;;;;;;;6215312;28;20053;-60
2023/07/16 11:10:09;;;;;;;32.70;24.45;;;;;;;;;;6197902;28;20074;-58
2023/07/16 11:13:10;;;;;;;34.08;25.10;;;;;;;;;;6193387;28;20049;-59
2023/07/16 11:16:11;;;;;;;34.55;24.67;;;;;;;;;;6211719;28;20072;-59
2023/07/16 11:19:11;;;;;;;34.90;24.85;;;;;;;;;;6204378;28;20057;-57
2023/07/16 11:22:13;;;;;;;33.22;24.63;;;;;;;;;;6195700;28;20050;-59
2023/07/16 11:25:14;;;;;;;34.58;23.45;;;;;;;;;;6197021;28;20485;-59
2023/07/16 11:28:15;;;;;;;;;;;;;;;;;;6196988;28;20581;-59
2023/07/16 11:31:17;;;;;;;30.77;23.03;;;;;;;;;;6192862;28;19971;-59
2023/07/16 11:34:21;;;;;;;32.28;22.75;;;;;;;;;;6201817;28;20451;-53
2023/07/16 11:37:24;;;;;;;33.42;23.55;;;;;;;;;;6198508;28;20053;-56
2023/07/16 11:40:25;;;;;;;33.30;24.30;;;;;;;;;;6196704;28;20101;-57
2023/07/16 11:43:26;;;;;;;;;;;;;;;;;;6196886;28;20045;-58
2023/07/16 11:46:32;;;;;;;30.60;24.08;;;;;;;;;;6201365;28;19995;-61
2023/07/16 11:49:33;;;;;;;37.08;25.35;;;;;;;;;;6198765;28;20042;-60
2023/07/16 11:52:34;;;;;;;;;;;;;;;;;;6198300;28;20539;-61
2023/07/16 11:55:35;;;;;;;34.53;23.40;;;;;;;;;;6200961;28;19922;-58
2023/07/16 11:58:36;;;;;;;31.65;23.77;;;;;;;;;;6200089;28;20054;-61
2023/07/16 12:01:36;;;;;;;;;;;;;;;;;;6200162;28;20050;-59
2023/07/16 12:04:37;;;;;;;33.00;22.98;;;;;;;;;;6199282;28;19929;-60
2023/07/16 12:07:38;;;;;;;29.80;23.02;;;;;;;;;;6196964;28;20049;-61
2023/07/16 12:10:42;;;;;;;;;;;;;;;;;;6198818;28;20305;-60
2023/07/16 12:13:43;;;;;;;33.63;24.13;;;;;;;;;;6198449;28;19971;-61
2023/07/16 12:16:43;;;;;;;;;;;;;;;;;;6198476;28;20057;-58
2023/07/16 12:19:44;;;;;;;29.60;22.53;;;;;;;;;;6198358;28;19929;-56
2023/07/16 12:22:44;;;;;;;;;;;;;;;;;;6198499;28;20505;-59
2023/07/16 12:25:45;;;;;;;31.07;23.43;;;;;;;;;;6197174;28;19936;-60
2023/07/16 12:28:46;;;;;;;;;;;;;;;;;;6199885;28;20050;-60
2023/07/16 12:31:46;;;;;;;29.23;23.10;;;;;;;;;;6198203;28;19922;-59
2023/07/16 12:34:47;;;;;;;32.20;22.85;;;;;;;;;;6199166;28;21850;-57
2023/07/16 12:37:47;;;;;;;36.10;22.67;;;;;;;;;;6200078;28;20046;-60
2023/07/16 12:40:48;;;;;;;;;;;;;;;;;;6200367;28;20073;-61
2023/07/16 12:43:48;;;;;;;32.00;23.27;;;;;;;;;;6198071;28;19944;-61
2023/07/16 12:46:49;;;;;;;34.35;22.75;;;;;;;;;;6197473;28;20137;-59
2023/07/16 12:49:50;;;;;;;;;;;;;;;;;;6199285;28;20707;-60
2023/07/16 12:52:50;;;;;;;29.75;22.38;;;;;;;;;;6196662;28;19921;-60
2023/07/16 12:55:51;;;;;;;;;;;;;;;;;;6196150;28;20559;-58
2023/07/16 12:58:52;;;;;;;32.53;22.95;;;;;;;;;;6197780;28;19925;-59
2023/07/16 13:01:53;;;;;;;;;;;;;;;;;;6196263;28;20231;-59
2023/07/16 13:04:53;;;;;;;31.23;23.05;;;;;;;;;;6197419;28;20403;-61
2023/07/16 13:07:54;;;;;;;;;;;;;;;;;;6200096;28;20046;-60
2023/07/16 13:10:54;;;;;;;33.53;22.67;;;;;;;;;;6198059;28;19981;-60
2023/07/16 13:13:55;;;;;;;;;;;;;;;;;;6198864;28;20046;-60
2023/07/16 13:16:56;;;;;;;31.63;23.57;;;;;;;;;;6198613;28;19922;-60
2023/07/16 13:19:56;;;;;;;;;;;;;;;;;;6208076;28;20046;-60
2023/07/16 13:22:58;;;;;;;33.20;24.43;;;;;;;;;;6197723;28;19992;-60
2023/07/16 13:25:58;;;;;;;33.97;26.27;;;;;;;;;;6199269;28;20050;-60
2023/07/16 13:28:59;;;;;;;33.90;25.60;;;;;;;;;;6195632;28;20077;-60
2023/07/16 13:31:59;;;;;;;36.38;28.60;;;;;;;;;;6197678;28;21035;-62
2023/07/16 13:35:00;;;;;;;36.28;29.13;;;;;;;;;;6203809;28;20045;-62
2023/07/16 13:38:02;;;;;;;40.50;29.50;;;;;;;;;;6200853;28;20449;-62
2023/07/16 13:41:03;;;;;;;36.22;28.75;;;;;;;;;;6197044;28;20400;-62
2023/07/16 13:44:03;;;;;;;35.22;28.45;;;;;;;;;;6196774;28;20049;-60
2023/07/16 13:47:04;;;;;;;34.42;29.90;;;;;;;;;;6197580;28;20057;-60
2023/07/16 13:50:05;;;;;;;36.00;28.63;;;;;;;;;;6196021;28;20046;-61
2023/07/16 13:53:06;;;;;;;33.90;28.35;;;;;;;;;;6195615;28;20640;-61
2023/07/16 13:56:06;;;;;;;37.50;29.98;;;;;;;;;;6197559;28;20050;-60
2023/07/16 13:59:07;;;;;;;40.33;31.17;;;;;;;;;;6195000;28;20042;-60
2023/07/16 14:02:08;;;;;;;37.97;30.25;;;;;;;;;;6199337;28;20085;-59
2023/07/16 14:05:08;;;;;;;38.53;30.73;;;;;;;;;;6215112;28;20501;-59
2023/07/16 14:08:09;;;;;;;42.28;30.73;;;;;;;;;;6197720;28;20054;-59
2023/07/16 14:11:09;;;;;;;37.60;30.15;;;;;;;;;;6198212;28;20074;-59
2023/07/16 14:14:10;;;;;;;38.63;30.25;;;;;;;;;;6196798;28;20073;-58
2023/07/16 14:17:11;;;;;;;43.63;30.80;;;;;;;;;;6194837;28;20169;-58
2023/07/16 14:20:11;;;;;;;34.22;29.45;;;;;;;;;;6197237;28;20057;-59
2023/07/16 14:23:12;;;;;;;42.28;30.73;;;;;;;;;;6194488;28;20053;-59
2023/07/16 14:26:12;;;;;;;38.33;31.00;;;;;;;;;;6195487;28;20046;-60
2023/07/16 14:29:13;;;;;;;37.65;30.67;;;;;;;;;;6194253;28;20513;-61
2023/07/16 14:32:14;;;;;;;42.17;31.38;;;;;;;;;;6196075;28;20101;-59
2023/07/16 14:35:15;;;;;;;37.72;31.15;;;;;;;;;;6195723;28;20140;-60
2023/07/16 14:38:16;;;;;;;41.97;31.75;;;;;;;;;;6194321;28;20116;-59
2023/07/16 14:41:17;;;;;;;36.85;30.80;;;;;;;;;;6196136;28;20082;-59
2023/07/16 14:44:17;;;;;;;37.65;30.83;;;;;;;;;;6194347;28;20056;-59
2023/07/16 14:47:18;;;;;;;40.08;30.88;;;;;;;;;;6196319;28;20078;-59
2023/07/16 14:50:18;;;;;;;39.55;31.55;;;;;;;;;;6194574;28;20486;-59
2023/07/16 14:53:19;;;;;;;42.05;32.10;;;;;;;;;;6193110;28;21384;-61
2023/07/16 14:56:20;;;;;;;39.03;32.58;;;;;;;;;;6193795;28;20041;-59
2023/07/16 14:59:21;;;;;;;40.13;31.45;;;;;;;;;;6193249;28;20089;-59
2023/07/16 15:02:21;;;;;;;40.55;32.50;;;;;;;;;;6194366;28;20111;-59
2023/07/16 15:05:22;;;;;;;41.10;33.33;;;;;;;;;;6197628;28;20049;-59
2023/07/16 15:08:23;;;;;;;45.50;34.33;;;;;;;;;;6194820;28;20043;-60
2023/07/16 15:11:24;;;;;;;44.20;34.40;;;;;;;;;;6195193;28;20485;-60
2023/07/16 15:14:24;;;;;;;41.60;33.40;;;;;;;;;;6196289;28;20050;-61
2023/07/16 15:17:25;;;;;;;45.25;33.40;;;;;;;;;;6206130;28;20124;-61
2023/07/16 15:20:26;;;;;;;39.40;30.90;;;;;;;;;;6194661;28;20089;-61
2023/07/16 15:23:27;;;;;;;40.33;32.55;;;;;;;;;;6208124;28;20497;-62
2023/07/16 15:26:28;;;;;;;39.58;30.38;;;;;;;;;;6206367;28;20045;-61
2023/07/16 15:29:28;;;;;;;43.72;32.08;;;;;;;;;;6206085;28;20050;-60
2023/07/16 15:32:29;;;;;;;;;;;;;;;;;;6217674;28;20057;-61
2023/07/16 15:35:30;;;;;;;38.60;31.07;;;;;;;;;;6220291;28;19922;-61
2023/07/16 15:38:31;;;;;;;;;;;;;;;;;;6221645;28;20050;-60
2023/07/16 15:41:31;;;;;;;40.47;29.50;;;;;;;;;;6211148;28;20024;-61
2023/07/16 15:44:32;;;;;;;;;;;;;;;;;;6196209;28;20046;-60
2023/07/16 15:47:33;;;;;;;38.07;28.33;;;;;;;;;;6216330;28;19922;-63
2023/07/16 15:50:34;;;;;;;;;;;;;;;;;;6214360;28;20046;-63
2023/07/16 15:53:34;;;;;;;38.65;29.17;;;;;;;;;;6196765;28;19929;-56
2023/07/16 15:56:35;;;;;;;;;;;;;;;;;;6197682;28;20054;-62
2023/07/16 15:59:36;;;;;;;39.60;28.73;;;;;;;;;;6196251;28;19922;-57
2023/07/16 16:02:36;;;;;;;38.10;30.27;;;;;;;;;;6194967;28;20405;-57
2023/07/16 16:05:37;;;;;;;;;;;;;;;;;;6200335;28;20564;-56
2023/07/16 16:08:37;;;;;;;39.87;30.00;;;;;;;;;;6199445;28;20365;-55
2023/07/16 16:11:38;;;;;;;;;;;;;;;;;;6198995;28;20101;-57
2023/07/16 16:14:39;;;;;;;42.10;31.73;;;;;;;;;;6198616;28;19928;-60
2023/07/16 16:17:40;;;;;;;38.55;29.88;;;;;;;;;;6220592;28;20100;-57
2023/07/16 16:20:41;;;;;;;;;;;;;;;;;;6219636;28;20049;-58
2023/07/16 16:23:41;;;;;;;39.17;28.65;;;;;;;;;;6216693;28;19927;-54
2023/07/16 16:26:42;;;;;;;;;;;;;;;;;;6219560;28;20042;-55
2023/07/16 16:29:43;;;;;;;35.37;28.33;;;;;;;;;;6207456;28;19921;-57
2023/07/16 16:32:43;;;;;;;;;;;;;;;;;;6217497;28;20045;-53
2023/07/16 16:35:44;;;;;;;36.20;28.43;;;;;;;;;;6219558;28;20289;-58
2023/07/16 16:38:44;;;;;;;;;;;;;;;;;;6220158;28;20046;-61
2023/07/16 16:41:47;;;;;;;38.37;26.50;;;;;;;;;;6218466;28;19921;-62
2023/07/16 16:44:48;;;;;;;33.08;25.92;;;;;;;;;;6218761;28;20041;-60
2023/07/16 16:47:49;;;;;;;29.92;23.05;;;;;;;;;;6218193;28;20290;-60
2023/07/16 16:50:49;;;;;;;;;;;;;;;;;;6219267;28;20052;-60
2023/07/16 16:53:50;;;;;;;29.50;21.37;;;;;;;;;;6218256;28;19921;-61
2023/07/16 16:56:50;;;;;;;;;;;;;;;;;;6219402;28;20504;-59
2023/07/16 16:59:52;;;;;;;29.97;21.77;;;;;;;;;;6219680;28;19964;-61
2023/07/16 17:02:52;;;;;;;36.40;22.67;;;;;;;;;;6217169;28;20586;-62
2023/07/16 17:05:55;;;;;;;30.95;22.17;;;;;;;;;;6219046;28;20069;-59
2023/07/16 17:08:56;;;;;;;30.58;21.20;;;;;;;;;;6219366;28;20413;-59
2023/07/16 17:11:56;;;;;;;28.55;22.00;;;;;;;;;;6210942;28;20037;-59
2023/07/16 17:14:57;;;;;;;;;;;;;;;;;;6212583;28;20057;-59
2023/07/16 17:17:58;;;;;;;31.30;21.83;;;;;;;;;;6218773;28;19967;-59
2023/07/16 17:20:58;;;;;;;;;;;;;;;;;;6219523;28;20072;-60
2023/07/16 17:23:59;;;;;;;30.03;22.23;;;;;;;;;;6218523;28;19952;-60
2023/07/16 17:26:59;;;;;;;;;;;;;;;;;;6219056;28;20394;-60
2023/07/16 17:30:00;;;;;;;29.70;21.63;;;;;;;;;;6218783;28;19925;-59
2023/07/16 17:33:01;;;;;;;;;;;;;;;;;;6207765;28;20050;-62
2023/07/16 17:36:02;;;;;;;29.30;21.53;;;;;;;;;;6218809;28;20000;-59
2023/07/16 17:39:03;;;;;;;;;;;;;;;;;;6219197;28;20081;-58
2023/07/16 17:42:04;;;;;;;34.00;23.52;;;;;;;;;;6216311;28;19929;-60
2023/07/16 17:45:05;;;;;;;;;;;;;;;;;;6219395;28;20042;-59
2023/07/16 17:48:05;;;;;;;37.92;23.40;;;;;;;;;;6217997;28;19925;-58
2023/07/16 17:51:08;;;;;;;;;;;;;;;;;;6209455;28;20042;-57
2023/07/16 17:54:08;;;;;;;30.75;23.63;;;;;;;;;;6205461;28;20064;-58